createdAt,value
2018-05-09T00:01:42.539Z,56.09
2018-05-09T00:04:10.171Z,54.58
2018-05-09T00:06:37.779Z,55.41
2018-05-09T00:09:05.947Z,56.04
2018-05-09T00:11:33.538Z,57.74
2018-05-09T00:14:03.463Z,59.41
2018-05-09T00:16:31.044Z,59.91
2018-05-09T00:18:58.611Z,60.63
2018-05-09T00:21:26.343Z,60.58
2018-05-09T00:23:53.985Z,61.72
2018-05-09T00:26:21.573Z,62.77
2018-05-09T00:28:49.197Z,62.02
2018-05-09T00:31:16.825Z,63.16
2018-05-09T00:33:44.393Z,63.80
2018-05-09T00:36:12.016Z,64.26
2018-05-09T00:38:39.604Z,63.71
2018-05-09T00:41:07.252Z,62.36
2018-05-09T00:43:34.881Z,64.33
2018-05-09T00:46:02.460Z,63.14
2018-05-09T00:48:30.049Z,62.09
2018-05-09T00:50:57.755Z,63.71
2018-05-09T00:53:25.355Z,62.87
2018-05-09T00:55:52.928Z,64.75
2018-05-09T00:58:20.604Z,64.91
2018-05-09T01:00:48.395Z,63.36
2018-05-09T01:03:16.028Z,63.47
2018-05-09T01:05:43.729Z,63.06
2018-05-09T01:08:11.303Z,63.00
2018-05-09T01:10:38.944Z,63.25
2018-05-09T01:13:06.649Z,64.03
2018-05-09T01:15:34.311Z,64.42
2018-05-09T01:18:01.960Z,64.25
2018-05-09T01:20:29.632Z,64.92
2018-05-09T01:22:57.200Z,64.98
2018-05-09T01:25:24.757Z,64.49
2018-05-09T01:27:52.538Z,64.41
2018-05-09T01:30:20.107Z,65.47
2018-05-09T01:32:47.687Z,66.14
2018-05-09T01:35:15.380Z,65.48
2018-05-09T01:37:42.940Z,66.25
2018-05-09T01:40:10.555Z,66.18
2018-05-09T01:42:38.209Z,65.88
2018-05-09T01:45:06.515Z,65.73
2018-05-09T01:47:34.147Z,66.53
2018-05-09T01:50:01.885Z,66.78
2018-05-09T01:52:29.453Z,66.71
2018-05-09T01:54:57.091Z,66.86
2018-05-09T01:57:24.836Z,67.76
2018-05-09T01:59:52.477Z,68.29
2018-05-09T02:02:20.299Z,69.13
2018-05-09T02:04:47.980Z,68.99
2018-05-09T02:07:15.603Z,68.99
2018-05-09T02:09:43.176Z,70.09
2018-05-09T02:12:10.852Z,70.35
2018-05-09T02:14:38.434Z,70.42
2018-05-09T02:17:06.019Z,69.68
2018-05-09T02:19:33.652Z,69.72
2018-05-09T02:22:01.243Z,69.32
2018-05-09T02:24:28.871Z,70.03
2018-05-09T02:26:56.548Z,70.19
2018-05-09T02:29:24.188Z,70.64
2018-05-09T02:31:51.781Z,70.79
2018-05-09T02:34:19.568Z,71.66
2018-05-09T02:36:47.143Z,72.25
2018-05-09T02:39:14.776Z,72.91
2018-05-09T02:41:42.384Z,73.76
2018-05-09T02:44:10.030Z,73.85
2018-05-09T02:46:37.640Z,73.91
2018-05-09T02:49:05.269Z,74.58
2018-05-09T02:51:33.456Z,74.96
2018-05-09T02:54:01.104Z,75.47
2018-05-09T02:56:28.812Z,76.32
2018-05-09T02:58:56.452Z,76.85
2018-05-09T03:01:24.041Z,76.62
2018-05-09T03:03:51.655Z,76.50
2018-05-09T03:06:19.289Z,75.40
2018-05-09T03:08:46.869Z,74.86
2018-05-09T03:11:14.548Z,73.96
2018-05-09T03:13:42.110Z,72.79
2018-05-09T03:16:09.740Z,71.60
2018-05-09T03:18:37.431Z,71.75
2018-05-09T03:21:05.003Z,72.27
2018-05-09T03:23:32.639Z,71.85
2018-05-09T03:26:00.310Z,71.47
2018-05-09T03:28:27.872Z,70.78
2018-05-09T03:30:55.428Z,70.63
2018-05-09T03:33:23.096Z,70.32
2018-05-09T03:35:50.700Z,71.17
2018-05-09T03:38:18.326Z,71.01
2018-05-09T03:40:46.051Z,71.98
2018-05-09T03:43:14.248Z,69.85
2018-05-09T03:45:41.828Z,70.45
2018-05-09T03:48:09.579Z,71.32
2018-05-09T03:50:37.143Z,71.24
2018-05-09T03:53:04.820Z,71.89
2018-05-09T03:55:33.363Z,71.79
2018-05-09T03:58:00.989Z,71.88
2018-05-09T04:00:28.638Z,72.54
2018-05-09T04:03:08.276Z,70.60
2018-05-09T04:05:47.835Z,70.61
2018-05-09T04:08:27.241Z,71.20
2018-05-09T04:10:54.827Z,70.85
2018-05-09T04:13:22.414Z,70.16
2018-05-09T04:15:50.110Z,69.97
2018-05-09T04:18:17.688Z,70.50
2018-05-09T04:20:45.423Z,70.21
2018-05-09T04:23:13.084Z,70.97
2018-05-09T04:25:40.652Z,70.33
2018-05-09T04:28:08.239Z,71.02
2018-05-09T04:30:36.009Z,69.02
2018-05-09T04:33:03.677Z,71.26
2018-05-09T04:35:31.257Z,69.28
2018-05-09T04:37:58.964Z,68.39
2018-05-09T04:40:26.606Z,69.18
2018-05-09T04:42:54.196Z,71.30
2018-05-09T04:45:21.827Z,71.12
2018-05-09T04:47:49.406Z,69.96
2018-05-09T04:50:16.988Z,69.88
2018-05-09T04:52:44.691Z,69.03
2018-05-09T04:55:12.344Z,66.91
2018-05-09T04:57:39.977Z,67.48
2018-05-09T05:00:07.668Z,68.01
2018-05-09T05:02:35.304Z,69.02
2018-05-09T05:05:02.899Z,67.94
2018-05-09T05:07:31.212Z,66.85
2018-05-09T05:09:58.796Z,63.38
2018-05-09T05:12:26.383Z,61.89
2018-05-09T05:14:54.065Z,60.89
2018-05-09T05:17:21.702Z,61.02
2018-05-09T05:19:49.372Z,56.38
2018-05-09T05:22:17.005Z,58.43
2018-05-09T05:24:44.591Z,56.85
2018-05-09T05:27:12.175Z,55.40
2018-05-09T05:29:39.881Z,52.99
2018-05-09T05:32:07.541Z,54.33
2018-05-09T05:34:35.125Z,56.39
2018-05-09T05:37:02.765Z,55.26
2018-05-09T05:39:30.403Z,54.06
2018-05-09T05:41:58.017Z,53.92
2018-05-09T05:44:26.163Z,53.14
2018-05-09T05:46:53.805Z,49.70
2018-05-09T05:49:21.423Z,47.74
2018-05-09T05:51:49.252Z,42.49
2018-05-09T05:54:16.874Z,44.42
2018-05-09T05:56:44.456Z,44.87
2018-05-09T05:59:12.117Z,41.96
2018-05-09T06:01:39.764Z,42.87
2018-05-09T06:04:07.337Z,44.67
2018-05-09T06:06:34.969Z,45.59
2018-05-09T06:09:02.535Z,44.18
2018-05-09T06:11:30.180Z,44.34
2018-05-09T06:13:57.828Z,48.65
2018-05-09T06:16:25.444Z,45.04
2018-05-09T06:18:53.093Z,45.27
2018-05-09T06:21:20.721Z,46.37
2018-05-09T06:23:48.294Z,46.50
2018-05-09T06:26:15.965Z,42.16
2018-05-09T06:28:43.686Z,45.95
2018-05-09T06:31:11.342Z,47.93
2018-05-09T06:33:38.937Z,44.40
2018-05-09T06:36:06.599Z,46.29
2018-05-09T06:38:34.191Z,48.34
2018-05-09T06:41:01.761Z,43.17
2018-05-09T06:46:39.260Z,48.86
2018-05-09T06:49:07.055Z,46.05
2018-05-09T06:51:34.632Z,51.46
2018-05-09T06:54:02.209Z,51.43
2018-05-09T06:56:29.952Z,50.13
2018-05-09T06:58:57.585Z,52.00
2018-05-09T07:01:25.173Z,51.13
2018-05-09T07:03:53.299Z,48.98
2018-05-09T07:06:20.996Z,50.72
2018-05-09T07:08:48.501Z,48.25
2018-05-09T07:11:16.164Z,48.11
2018-05-09T07:13:43.753Z,50.42
2018-05-09T07:16:11.392Z,50.88
2018-05-09T07:18:39.747Z,46.11
2018-05-09T07:21:08.087Z,48.48
2018-05-09T07:23:35.691Z,48.48
2018-05-09T07:26:03.423Z,45.19
2018-05-09T07:28:31.096Z,43.41
2018-05-09T07:30:59.417Z,42.28
2018-05-09T07:33:27.421Z,45.04
2018-05-09T07:35:55.559Z,44.41
2018-05-09T07:38:23.169Z,43.34
2018-05-09T07:40:50.803Z,41.47
2018-05-09T07:43:18.375Z,44.17
2018-05-09T07:45:46.428Z,46.40
2018-05-09T07:48:14.759Z,42.73
2018-05-09T07:50:42.340Z,47.70
2018-05-09T07:53:09.975Z,43.11
2018-05-09T07:55:37.767Z,44.53
2018-05-09T07:58:05.424Z,45.02
2018-05-09T08:00:33.009Z,43.14
2018-05-09T08:03:00.719Z,42.69
2018-05-09T08:05:28.367Z,43.13
2018-05-09T08:07:55.937Z,41.21
2018-05-09T08:10:23.612Z,47.26
2018-05-09T08:12:51.259Z,44.60
2018-05-09T08:15:18.781Z,40.79
2018-05-09T08:17:46.407Z,39.32
2018-05-09T08:20:13.976Z,42.41
2018-05-09T08:22:41.573Z,42.20
2018-05-09T08:25:09.280Z,45.34
2018-05-09T08:27:37.622Z,43.17
2018-05-09T08:30:05.880Z,40.74
2018-05-09T08:32:33.588Z,44.95
2018-05-09T08:35:01.165Z,44.78
2018-05-09T08:37:28.744Z,42.61
2018-05-09T08:39:56.377Z,43.17
2018-05-09T08:42:23.963Z,40.29
2018-05-09T08:44:51.544Z,44.95
2018-05-09T08:47:19.220Z,45.10
2018-05-09T08:49:46.804Z,44.24
2018-05-09T08:52:14.379Z,44.19
2018-05-09T08:54:42.081Z,43.25
2018-05-09T08:57:09.759Z,44.48
2018-05-09T08:59:37.335Z,43.09
2018-05-09T09:02:04.996Z,41.56
2018-05-09T09:04:32.584Z,40.92
2018-05-09T09:07:00.178Z,45.07
2018-05-09T09:09:27.787Z,46.41
2018-05-09T09:11:55.350Z,47.72
2018-05-09T09:14:22.943Z,45.21
2018-05-09T09:16:50.563Z,46.60
2018-05-09T09:19:18.136Z,48.00
2018-05-09T09:21:45.707Z,48.02
2018-05-09T09:24:13.324Z,47.34
2018-05-09T09:26:40.903Z,46.27
2018-05-09T09:29:08.583Z,46.53
2018-05-09T09:31:36.259Z,44.06
2018-05-09T09:34:03.852Z,43.86
2018-05-09T09:36:31.473Z,42.46
2018-05-09T09:38:59.179Z,40.84
2018-05-09T09:41:26.836Z,42.68
2018-05-09T09:43:54.361Z,42.39
2018-05-09T09:46:21.971Z,39.00
2018-05-09T09:48:49.607Z,39.83
2018-05-09T09:51:17.168Z,38.28
2018-05-09T09:53:44.887Z,40.71
2018-05-09T09:56:12.761Z,40.59
2018-05-09T09:58:40.408Z,43.18
2018-05-09T10:01:08.092Z,39.76
2018-05-09T10:03:35.734Z,41.02
2018-05-09T10:06:03.333Z,44.23
2018-05-09T10:08:31.004Z,41.80
2018-05-09T10:10:58.607Z,39.48
2018-05-09T10:13:26.800Z,38.95
2018-05-09T10:15:54.503Z,40.53
2018-05-09T10:18:22.124Z,41.52
2018-05-09T10:20:49.800Z,39.26
2018-05-09T10:23:17.555Z,38.89
2018-05-09T10:25:45.165Z,36.96
2018-05-09T10:28:12.756Z,37.80
2018-05-09T10:30:40.408Z,36.35
2018-05-09T10:33:08.034Z,38.04
2018-05-09T10:35:35.619Z,40.05
2018-05-09T10:38:03.331Z,37.11
2018-05-09T10:40:30.985Z,38.55
2018-05-09T10:42:58.617Z,39.47
2018-05-09T10:45:26.253Z,44.29
2018-05-09T10:47:53.844Z,42.32
2018-05-09T10:50:21.479Z,39.43
2018-05-09T10:52:49.267Z,40.66
2018-05-09T10:55:16.847Z,39.99
2018-05-09T10:57:44.418Z,39.86
2018-05-09T11:00:13.317Z,38.68
2018-05-09T11:02:41.367Z,37.26
2018-05-09T11:05:09.005Z,37.04
2018-05-09T11:07:36.615Z,37.64
2018-05-09T11:10:04.266Z,36.16
2018-05-09T11:12:31.841Z,34.63
2018-05-09T11:14:59.480Z,37.06
2018-05-09T11:17:27.085Z,38.75
2018-05-09T11:19:54.724Z,37.52
2018-05-09T11:22:22.408Z,35.48
2018-05-09T11:24:49.984Z,34.46
2018-05-09T11:27:17.632Z,36.22
2018-05-09T11:29:45.244Z,40.48
2018-05-09T11:32:12.830Z,36.09
2018-05-09T11:34:40.433Z,35.36
2018-05-09T11:37:08.140Z,35.36
2018-05-09T11:39:35.806Z,36.08
2018-05-09T11:42:03.393Z,34.87
2018-05-09T11:44:31.094Z,36.35
2018-05-09T11:46:58.680Z,37.34
2018-05-09T11:49:26.326Z,34.84
2018-05-09T11:51:53.953Z,36.24
2018-05-09T11:54:21.549Z,34.57
2018-05-09T11:56:49.197Z,36.71
2018-05-09T11:59:16.869Z,36.24
2018-05-09T12:01:44.503Z,37.97
2018-05-09T12:04:12.155Z,39.86
2018-05-09T12:06:39.899Z,35.11
2018-05-09T12:09:07.537Z,40.61
2018-05-09T12:11:35.109Z,38.12
2018-05-09T12:14:03.376Z,37.00
2018-05-09T12:16:30.959Z,36.90
2018-05-09T12:18:58.540Z,38.80
2018-05-09T12:21:26.172Z,37.81
2018-05-09T12:23:53.756Z,36.55
2018-05-09T12:26:21.398Z,36.94
2018-05-09T12:28:49.348Z,36.71
2018-05-09T12:31:16.932Z,37.28
2018-05-09T12:33:44.573Z,35.67
2018-05-09T12:36:12.295Z,41.05
2018-05-09T12:38:39.972Z,36.95
2018-05-09T12:41:07.563Z,39.23
2018-05-09T12:43:35.182Z,36.78
2018-05-09T12:46:02.753Z,39.50
2018-05-09T12:48:30.462Z,40.42
2018-05-09T12:50:58.109Z,37.15
2018-05-09T12:53:25.741Z,40.06
2018-05-09T12:55:53.397Z,38.55
2018-05-09T12:58:21.141Z,38.66
2018-05-09T13:00:48.750Z,38.97
2018-05-09T13:03:16.360Z,41.33
2018-05-09T13:05:44.057Z,39.28
2018-05-09T13:08:11.692Z,40.03
2018-05-09T13:10:39.276Z,40.76
2018-05-09T13:13:06.898Z,37.10
2018-05-09T13:15:34.495Z,37.40
2018-05-09T13:18:02.065Z,41.28
2018-05-09T13:20:29.760Z,39.77
2018-05-09T13:22:57.888Z,40.87
2018-05-09T13:25:25.519Z,40.73
2018-05-09T13:27:53.174Z,40.55
2018-05-09T13:30:20.756Z,41.05
2018-05-09T13:32:48.336Z,38.47
2018-05-09T13:35:16.134Z,39.86
2018-05-09T13:37:43.714Z,41.44
2018-05-09T13:40:11.358Z,40.62
2018-05-09T13:42:38.968Z,39.17
2018-05-09T13:45:06.617Z,40.57
2018-05-09T13:47:34.289Z,40.37
2018-05-09T13:50:01.914Z,40.73
2018-05-09T13:52:29.507Z,39.99
2018-05-09T13:54:57.072Z,38.91
2018-05-09T13:57:24.689Z,40.87
2018-05-09T13:59:52.334Z,40.46
2018-05-09T14:02:19.976Z,39.90
2018-05-09T14:04:47.691Z,40.83
2018-05-09T14:07:15.265Z,42.69
2018-05-09T14:09:42.897Z,44.09
2018-05-09T14:12:10.528Z,39.00
2018-05-09T14:14:38.115Z,40.21
2018-05-09T14:17:05.692Z,41.49
2018-05-09T14:19:33.311Z,39.20
2018-05-09T14:22:00.947Z,39.58
2018-05-09T14:24:28.522Z,39.96
2018-05-09T14:26:56.248Z,39.23
2018-05-09T14:29:23.845Z,39.56
2018-05-09T14:31:51.463Z,39.47
2018-05-09T14:34:19.278Z,39.18
2018-05-09T14:36:46.960Z,39.72
2018-05-09T14:39:14.613Z,39.67
2018-05-09T14:41:42.231Z,39.63
2018-05-09T14:44:09.816Z,41.25
2018-05-09T14:46:37.470Z,41.30
2018-05-09T14:49:05.169Z,42.40
2018-05-09T14:51:32.800Z,43.09
2018-05-09T14:54:00.401Z,42.83
2018-05-09T14:56:28.033Z,42.64
2018-05-09T14:58:55.669Z,42.65
2018-05-09T15:01:23.248Z,42.66
2018-05-09T15:03:50.952Z,42.55
2018-05-09T15:06:18.601Z,42.17
2018-05-09T15:08:46.252Z,41.77
2018-05-09T15:11:14.032Z,41.98
2018-05-09T15:13:41.574Z,42.14
2018-05-09T15:16:09.225Z,42.77
2018-05-09T15:18:36.858Z,42.88
2018-05-09T15:21:04.488Z,43.86
2018-05-09T15:23:32.090Z,43.97
2018-05-09T15:25:59.737Z,44.34
2018-05-09T15:28:27.314Z,44.08
2018-05-09T15:30:54.917Z,43.12
2018-05-09T15:33:22.720Z,44.38
2018-05-09T15:35:50.395Z,43.95
2018-05-09T15:38:18.029Z,45.12
2018-05-09T15:40:45.734Z,45.83
2018-05-09T15:43:13.334Z,47.99
2018-05-09T15:45:40.927Z,46.62
2018-05-09T15:48:08.576Z,45.12
2018-05-09T15:50:36.161Z,47.01
2018-05-09T15:53:03.764Z,45.15
2018-05-09T15:55:31.508Z,47.00
2018-05-09T15:57:59.076Z,47.39
2018-05-09T16:00:26.713Z,47.53
2018-05-09T16:02:54.424Z,47.63
2018-05-09T16:05:22.073Z,48.63
2018-05-09T16:07:49.733Z,49.10
2018-05-09T16:10:17.536Z,49.21
2018-05-09T16:12:45.180Z,50.82
2018-05-09T16:15:12.882Z,49.52
2018-05-09T16:17:40.621Z,48.44
2018-05-09T16:20:08.289Z,46.90
2018-05-09T16:22:36.689Z,47.08
2018-05-09T16:25:05.211Z,47.01
2018-05-09T16:27:32.800Z,46.39
2018-05-09T16:30:00.400Z,47.10
2018-05-09T16:32:28.070Z,46.85
2018-05-09T16:35:27.589Z,46.98
2018-05-09T16:37:55.404Z,48.87
2018-05-09T16:40:22.985Z,49.28
2018-05-09T16:42:50.632Z,49.49
2018-05-09T16:45:18.450Z,48.89
2018-05-09T16:47:46.020Z,49.84
2018-05-09T16:50:13.656Z,50.89
2018-05-09T16:52:41.285Z,51.29
2018-05-09T16:55:08.929Z,52.10
2018-05-09T16:57:36.518Z,52.68
2018-05-09T17:00:04.264Z,52.41
2018-05-09T17:02:31.920Z,56.84
2018-05-09T17:04:59.515Z,57.69
2018-05-09T17:07:27.285Z,59.37
2018-05-09T17:09:54.931Z,59.40
2018-05-09T17:12:22.546Z,59.42
2018-05-09T17:14:50.278Z,59.66
2018-05-09T17:17:17.912Z,59.95
2018-05-09T17:19:45.576Z,61.05
2018-05-09T17:22:28.020Z,61.00
2018-05-09T17:24:55.668Z,60.07
2018-05-09T17:27:23.326Z,61.33
2018-05-09T17:29:50.957Z,61.86
2018-05-09T17:32:18.568Z,62.63
2018-05-09T17:34:46.230Z,62.11
2018-05-09T17:37:13.865Z,62.32
2018-05-09T17:39:42.236Z,60.73
2018-05-09T17:42:09.817Z,61.46
2018-05-09T17:44:37.497Z,61.61
2018-05-09T17:47:05.104Z,61.51
2018-05-09T17:49:32.679Z,61.76
2018-05-09T17:52:00.378Z,60.23
2018-05-09T17:54:28.014Z,59.28
2018-05-09T17:56:55.651Z,60.23
2018-05-09T17:59:23.267Z,60.23
2018-05-09T18:01:50.900Z,59.29
2018-05-09T18:04:18.487Z,59.98
2018-05-09T18:06:46.985Z,61.05
2018-05-09T18:09:14.615Z,61.02
2018-05-09T18:11:42.339Z,59.85
2018-05-09T18:14:10.060Z,60.72
2018-05-09T18:16:37.650Z,60.88
2018-05-09T18:19:05.291Z,60.86
2018-05-09T18:21:32.931Z,60.98
2018-05-09T18:24:00.645Z,61.78
2018-05-09T18:26:28.255Z,62.06
2018-05-09T18:28:56.673Z,62.90
2018-05-09T18:31:24.313Z,62.96
2018-05-09T18:33:51.907Z,63.15
2018-05-09T18:36:19.627Z,63.46
2018-05-09T18:38:47.281Z,64.32
2018-05-09T18:41:14.856Z,64.71
2018-05-09T18:43:42.666Z,64.95
2018-05-09T18:46:10.321Z,65.15
2018-05-09T18:48:39.196Z,64.87
2018-05-09T18:51:06.896Z,64.96
2018-05-09T18:53:34.726Z,65.71
2018-05-09T18:56:02.475Z,65.29
2018-05-09T18:58:30.204Z,64.45
2018-05-09T19:00:57.871Z,64.90
2018-05-09T19:03:25.460Z,65.28
2018-05-09T19:05:53.300Z,65.72
2018-05-09T19:08:21.028Z,66.09
2018-05-09T19:10:48.698Z,66.28
2018-05-09T19:13:16.454Z,66.60
2018-05-09T19:15:44.128Z,66.53
2018-05-09T19:18:11.720Z,67.04
2018-05-09T19:20:39.344Z,67.61
2018-05-09T19:23:07.060Z,68.07
2018-05-09T19:25:34.660Z,67.96
2018-05-09T19:28:02.297Z,68.64
2018-05-09T19:30:29.892Z,69.14
2018-05-09T19:32:57.465Z,69.67
2018-05-09T19:35:25.153Z,69.81
2018-05-09T19:37:52.741Z,69.61
2018-05-09T19:40:20.337Z,69.72
2018-05-09T19:42:48.164Z,69.54
2018-05-09T19:45:15.731Z,69.24
2018-05-09T19:47:43.403Z,69.28
2018-05-09T19:50:10.998Z,69.85
2018-05-09T19:52:38.643Z,69.66
2018-05-09T19:55:06.241Z,70.27
2018-05-09T19:57:33.901Z,70.10
2018-05-09T20:00:01.553Z,70.51
2018-05-09T20:02:29.160Z,70.46
2018-05-09T20:04:56.964Z,70.54
2018-05-09T20:07:24.556Z,70.68
2018-05-09T20:09:52.224Z,70.80
2018-05-09T20:12:19.956Z,71.07
2018-05-09T20:14:47.977Z,71.38
2018-05-09T20:17:15.571Z,71.68
2018-05-09T20:19:43.210Z,71.71
2018-05-09T20:22:11.751Z,71.95
2018-05-09T20:24:39.405Z,71.48
2018-05-09T20:27:07.047Z,72.34
2018-05-09T20:29:34.629Z,72.28
2018-05-09T20:32:14.256Z,73.08
2018-05-09T20:34:41.841Z,73.28
2018-05-09T20:37:09.440Z,72.83
2018-05-09T20:39:37.063Z,73.34
2018-05-09T20:42:04.706Z,72.94
2018-05-09T20:44:32.269Z,73.05
2018-05-09T20:46:59.961Z,73.15
2018-05-09T20:49:27.606Z,73.05
2018-05-09T20:51:55.368Z,73.01
2018-05-09T20:54:23.094Z,72.91
2018-05-09T20:56:50.691Z,72.77
2018-05-09T20:59:18.459Z,72.74
2018-05-09T21:01:49.088Z,73.04
2018-05-09T21:04:16.703Z,72.54
2018-05-09T21:06:44.285Z,72.27
2018-05-09T21:09:12.885Z,72.27
2018-05-09T21:11:41.261Z,72.10
2018-05-09T21:14:08.869Z,72.09
2018-05-09T21:16:36.678Z,71.98
2018-05-09T21:19:04.371Z,71.93
2018-05-09T21:21:31.931Z,72.09
2018-05-09T21:23:59.573Z,72.19
2018-05-09T21:26:27.168Z,71.67
2018-05-09T21:28:54.789Z,71.97
2018-05-09T21:31:22.424Z,72.08
2018-05-09T21:33:50.013Z,72.11
2018-05-09T21:36:17.598Z,72.55
2018-05-09T21:38:45.308Z,72.98
2018-05-09T21:41:12.957Z,72.79
2018-05-09T21:43:40.596Z,72.66
2018-05-09T21:46:08.333Z,72.52
2018-05-09T21:48:35.966Z,72.55
2018-05-09T21:51:03.555Z,72.55
2018-05-09T21:53:31.187Z,72.71
2018-05-09T21:55:58.772Z,72.47
2018-05-09T21:58:26.444Z,71.64
2018-05-09T22:00:54.142Z,72.14
2018-05-09T22:03:21.729Z,72.38
2018-05-09T22:05:49.711Z,72.40
2018-05-09T22:08:17.339Z,71.94
2018-05-09T22:10:44.962Z,71.69
2018-05-09T22:13:12.552Z,71.16
2018-05-09T22:15:40.379Z,71.54
2018-05-09T22:18:07.967Z,71.90
2018-05-09T22:20:35.535Z,71.74
2018-05-09T22:23:03.247Z,71.75
2018-05-09T22:25:30.821Z,70.66
2018-05-09T22:27:58.404Z,71.03
2018-05-09T22:30:26.111Z,71.09
2018-05-09T22:32:53.678Z,70.87
2018-05-09T22:35:21.300Z,70.78
2018-05-09T22:37:48.968Z,71.15
2018-05-09T22:40:16.571Z,71.05
2018-05-09T22:42:44.205Z,71.00
2018-05-09T22:45:11.828Z,70.83
2018-05-09T22:47:39.408Z,71.62
2018-05-09T22:50:06.971Z,71.11
2018-05-09T22:52:34.686Z,70.62
2018-05-09T22:55:02.418Z,70.32
2018-05-09T22:57:30.601Z,69.48
2018-05-09T22:59:58.278Z,69.71
2018-05-09T23:02:26.431Z,69.73
2018-05-09T23:04:54.031Z,69.85
2018-05-09T23:07:21.660Z,69.31
2018-05-09T23:09:49.244Z,69.35
2018-05-09T23:12:16.823Z,70.21
2018-05-09T23:14:44.548Z,70.18
2018-05-09T23:17:12.199Z,69.98
2018-05-09T23:19:39.747Z,69.65
2018-05-09T23:22:07.516Z,69.91
2018-05-09T23:24:35.116Z,70.41
2018-05-09T23:27:02.683Z,69.84
2018-05-09T23:29:30.405Z,70.40
2018-05-09T23:31:58.044Z,70.08
2018-05-09T23:34:25.724Z,70.37
2018-05-09T23:36:53.380Z,70.14
2018-05-09T23:39:20.985Z,70.06
2018-05-09T23:41:48.616Z,69.76
2018-05-09T23:44:16.422Z,69.69
2018-05-09T23:46:44.049Z,69.69
2018-05-09T23:49:11.704Z,69.87
2018-05-09T23:51:39.339Z,69.20
2018-05-09T23:54:06.914Z,69.19
2018-05-09T23:56:34.560Z,69.34
2018-05-09T23:59:02.176Z,70.29
